createdAt,value
2023-05-11T00:00:06.153Z,9.00
2023-05-11T00:10:11.587Z,9.43
2023-05-11T00:20:14.249Z,8.70
2023-05-11T00:30:18.883Z,8.30
2023-05-11T00:40:21.800Z,9.13
2023-05-11T00:50:26.428Z,8.80
2023-05-11T01:00:29.243Z,8.68
2023-05-11T01:10:39.002Z,9.38
2023-05-11T01:20:45.024Z,10.50
2023-05-11T01:30:50.653Z,9.60
2023-05-11T01:40:57.730Z,10.60
2023-05-11T01:51:03.923Z,11.73
2023-05-11T02:01:07.481Z,11.88
2023-05-11T02:11:13.083Z,11.27
2023-05-11T02:21:17.371Z,10.48
2023-05-11T02:31:26.446Z,11.02
2023-05-11T02:41:31.596Z,11.00
2023-05-11T02:51:38.452Z,10.95
2023-05-11T03:01:41.661Z,10.52
2023-05-11T03:11:46.335Z,9.43
2023-05-11T03:21:50.907Z,11.88
2023-05-11T03:31:56.071Z,10.63
2023-05-11T03:42:01.132Z,9.57
2023-05-11T03:52:06.693Z,10.02
2023-05-11T04:02:09.939Z,9.05
2023-05-11T04:12:14.496Z,10.00
2023-05-11T04:22:17.171Z,11.45
2023-05-11T04:32:21.141Z,10.63
2023-05-11T04:42:23.789Z,10.15
2023-05-11T04:52:27.932Z,8.30
2023-05-11T05:02:30.551Z,9.05
2023-05-11T05:12:34.612Z,7.70
2023-05-11T05:22:37.479Z,6.32
2023-05-11T05:32:42.677Z,8.40
2023-05-11T05:42:45.865Z,9.00
2023-05-11T05:52:49.841Z,9.05
2023-05-11T06:02:52.528Z,7.55
2023-05-11T06:12:56.573Z,7.38
2023-05-11T06:22:59.249Z,7.35
2023-05-11T06:33:03.365Z,6.65
2023-05-11T06:43:06.563Z,6.65
2023-05-11T06:53:10.701Z,5.72
2023-05-11T07:03:13.499Z,6.28
2023-05-11T07:13:17.553Z,6.25
2023-05-11T07:23:20.243Z,7.68
2023-05-11T07:33:24.489Z,7.15
2023-05-11T07:43:27.134Z,7.35
2023-05-11T07:53:31.403Z,8.25
2023-05-11T08:03:34.244Z,7.90
2023-05-11T08:13:38.573Z,9.70
2023-05-11T08:23:42.931Z,7.60
2023-05-11T08:33:48.746Z,7.35
2023-05-11T08:43:51.794Z,7.30
2023-05-11T08:53:57.600Z,6.53
2023-05-11T09:04:00.571Z,5.93
2023-05-11T09:14:04.610Z,5.15
2023-05-11T09:24:07.810Z,5.75
2023-05-11T09:34:14.317Z,4.78
2023-05-11T09:44:17.322Z,4.93
2023-05-11T09:54:22.656Z,5.35
2023-05-11T10:04:30.615Z,4.53
2023-05-11T10:14:34.947Z,4.32
2023-05-11T10:24:38.098Z,5.45
2023-05-11T10:34:43.775Z,5.30
2023-05-11T10:45:01.474Z,5.05
2023-05-11T10:55:16.196Z,5.28
2023-05-11T11:05:34.305Z,6.63
2023-05-11T11:16:16.152Z,7.55
2023-05-11T11:26:50.670Z,8.18
2023-05-11T11:37:13.451Z,6.63
2023-05-11T11:47:18.753Z,5.68
2023-05-11T11:57:44.068Z,5.20
2023-05-11T12:07:50.097Z,4.95
2023-05-11T12:17:52.843Z,3.97
2023-05-11T12:28:00.378Z,4.03
2023-05-11T12:38:03.355Z,4.00
2023-05-11T12:48:08.083Z,3.25
2023-05-11T12:58:13.665Z,2.58
2023-05-11T13:08:20.663Z,2.97
2023-05-11T13:18:23.887Z,2.80
2023-05-11T13:28:27.955Z,2.30
2023-05-11T13:38:30.781Z,1.50
2023-05-11T13:48:34.830Z,1.88
2023-05-11T13:58:37.559Z,2.00
2023-05-11T14:08:41.560Z,2.50
2023-05-11T14:18:44.454Z,2.03
2023-05-11T14:28:48.536Z,2.42
2023-05-11T14:38:51.963Z,1.92
2023-05-11T14:48:56.008Z,2.00
2023-05-11T14:58:59.174Z,2.03
2023-05-11T15:09:03.201Z,2.10
2023-05-11T15:19:06.641Z,2.20
2023-05-11T15:29:11.309Z,2.30
2023-05-11T15:39:14.011Z,2.10
2023-05-11T15:49:17.996Z,2.75
2023-05-11T15:59:20.724Z,2.67
2023-05-11T16:09:24.675Z,2.60
2023-05-11T16:19:27.374Z,3.00
2023-05-11T16:29:32.026Z,2.80
2023-05-11T16:39:34.968Z,3.20
2023-05-11T16:49:39.007Z,3.58
2023-05-11T16:59:41.965Z,4.47
2023-05-11T17:09:46.046Z,5.10
2023-05-11T17:19:48.676Z,5.28
2023-05-11T17:29:52.681Z,5.72
2023-05-11T17:39:55.834Z,5.45
2023-05-11T17:49:59.878Z,6.38
2023-05-11T18:00:02.755Z,7.63
2023-05-11T18:10:08.015Z,6.72
2023-05-11T18:20:11.383Z,7.85
2023-05-11T18:30:15.994Z,8.02
2023-05-11T18:40:19.015Z,8.02
2023-05-11T18:50:24.480Z,8.10
2023-05-11T19:00:27.156Z,8.23
2023-05-11T19:10:31.174Z,11.10
2023-05-11T19:20:34.119Z,10.30
2023-05-11T19:30:38.320Z,9.43
2023-05-11T19:50:48.728Z,9.95
2023-05-11T20:00:51.609Z,8.57
2023-05-11T20:10:55.802Z,10.57
2023-05-11T20:20:58.435Z,9.75
2023-05-11T20:31:02.447Z,9.27
2023-05-11T20:41:05.131Z,9.65
2023-05-11T20:51:09.131Z,7.95
2023-05-11T21:01:12.086Z,9.88
2023-05-11T21:11:16.090Z,10.45
2023-05-11T21:21:18.727Z,10.88
2023-05-11T21:31:22.840Z,12.93
2023-05-11T21:41:25.621Z,11.90
2023-05-11T21:51:30.148Z,13.18
2023-05-11T22:01:32.848Z,11.30
2023-05-11T22:11:39.470Z,11.55
2023-05-11T22:21:42.128Z,13.35
2023-05-11T22:31:46.514Z,14.10
2023-05-11T22:41:49.241Z,15.02
2023-05-11T22:51:53.860Z,13.10
2023-05-11T23:02:01.765Z,14.25
2023-05-11T23:12:06.333Z,13.85
2023-05-11T23:22:09.201Z,14.45
2023-05-11T23:32:13.190Z,14.65
2023-05-11T23:42:16.006Z,14.70
2023-05-11T23:52:20.010Z,16.00
